sensor_id;sensor_type;location;lat;lon;timestamp;pressure;altitude;pressure_sealevel;temperature;humidity
30636;BME280;17400;52.392;9.750;2024-01-15T00:00:39;99050.50;;;2.61;100.00
30636;BME280;17400;52.392;9.750;2024-01-15T00:03:07;99049.47;;;2.62;100.00
30636;BME280;17400;52.392;9.750;2024-01-15T00:05:37;99050.13;;;2.64;100.00
30636;BME280;17400;52.392;9.750;2024-01-15T00:08:05;99042.66;;;2.59;100.00
30636;BME280;17400;52.392;9.750;2024-01-15T00:10:34;99034.47;;;2.61;100.00
30636;BME280;17400;52.392;9.750;2024-01-15T00:13:02;99019.34;;;2.68;100.00
30636;BME280;17400;52.392;9.750;2024-01-15T00:15:30;99030.78;;;2.62;100.00
30636;BME280;17400;52.392;9.750;2024-01-15T00:18:01;99030.88;;;2.69;100.00
30636;BME280;17400;52.392;9.750;2024-01-15T00:20:29;99040.53;;;2.70;100.00
30636;BME280;17400;52.392;9.750;2024-01-15T00:23:00;99036.22;;;2.69;100.00
30636;BME280;17400;52.392;9.750;2024-01-15T00:25:28;99029.75;;;2.63;100.00
30636;BME280;17400;52.392;9.750;2024-01-15T00:27:56;99025.81;;;2.59;100.00
30636;BME280;17400;52.392;9.750;2024-01-15T00:30:24;99033.09;;;2.50;100.00
30636;BME280;17400;52.392;9.750;2024-01-15T00:32:52;99029.97;;;2.46;100.00
30636;BME280;17400;52.392;9.750;2024-01-15T00:35:20;99028.78;;;2.49;100.00
30636;BME280;17400;52.392;9.750;2024-01-15T00:37:48;99010.09;;;2.49;100.00
30636;BME280;17400;52.392;9.750;2024-01-15T00:40:17;99015.34;;;2.42;100.00
30636;BME280;17400;52.392;9.750;2024-01-15T00:42:45;99000.03;;;2.51;100.00
30636;BME280;17400;52.392;9.750;2024-01-15T00:45:13;98997.53;;;2.49;100.00
30636;BME280;17400;52.392;9.750;2024-01-15T00:47:41;98997.66;;;2.41;100.00
30636;BME280;17400;52.392;9.750;2024-01-15T00:50:09;99007.69;;;2.39;100.00
30636;BME280;17400;52.392;9.750;2024-01-15T00:52:37;99008.53;;;2.40;100.00
30636;BME280;17400;52.392;9.750;2024-01-15T00:55:06;98997.28;;;2.44;100.00
30636;BME280;17400;52.392;9.750;2024-01-15T00:57:35;99002.88;;;2.49;100.00
30636;BME280;17400;52.392;9.750;2024-01-15T01:00:05;98985.66;;;2.52;100.00
30636;BME280;17400;52.392;9.750;2024-01-15T01:02:33;98985.28;;;2.55;100.00
30636;BME280;17400;52.392;9.750;2024-01-15T01:05:01;98987.94;;;2.55;100.00
30636;BME280;17400;52.392;9.750;2024-01-15T01:07:29;98990.09;;;2.45;100.00
30636;BME280;17400;52.392;9.750;2024-01-15T01:09:58;98996.06;;;2.47;100.00
30636;BME280;17400;52.392;9.750;2024-01-15T01:12:26;98994.50;;;2.53;100.00
30636;BME280;17400;52.392;9.750;2024-01-15T01:14:56;98998.38;;;2.50;100.00
30636;BME280;17400;52.392;9.750;2024-01-15T01:17:25;98992.00;;;2.51;100.00
30636;BME280;17400;52.392;9.750;2024-01-15T01:19:53;99004.63;;;2.57;100.00
30636;BME280;17400;52.392;9.750;2024-01-15T01:22:22;98993.13;;;2.57;100.00
30636;BME280;17400;52.392;9.750;2024-01-15T01:24:50;98979.66;;;2.50;100.00
30636;BME280;17400;52.392;9.750;2024-01-15T01:27:18;98978.84;;;2.49;100.00
30636;BME280;17400;52.392;9.750;2024-01-15T01:29:46;98981.53;;;2.49;100.00
30636;BME280;17400;52.392;9.750;2024-01-15T01:32:15;98976.63;;;2.53;100.00
30636;BME280;17400;52.392;9.750;2024-01-15T01:34:43;98975.06;;;2.59;100.00
30636;BME280;17400;52.392;9.750;2024-01-15T01:37:11;98972.19;;;2.60;100.00
30636;BME280;17400;52.392;9.750;2024-01-15T01:39:40;98970.44;;;2.53;100.00
30636;BME280;17400;52.392;9.750;2024-01-15T01:42:09;98965.88;;;2.46;100.00
30636;BME280;17400;52.392;9.750;2024-01-15T01:44:37;98966.31;;;2.50;100.00
30636;BME280;17400;52.392;9.750;2024-01-15T01:47:05;98962.44;;;2.53;100.00
30636;BME280;17400;52.392;9.750;2024-01-15T01:49:35;98951.88;;;2.44;100.00
30636;BME280;17400;52.392;9.750;2024-01-15T01:52:05;98965.09;;;2.53;100.00
30636;BME280;17400;52.392;9.750;2024-01-15T01:54:35;98963.22;;;2.46;100.00
30636;BME280;17400;52.392;9.750;2024-01-15T01:57:05;98969.94;;;2.42;100.00
30636;BME280;17400;52.392;9.750;2024-01-15T01:59:34;98959.69;;;2.46;100.00
30636;BME280;17400;52.392;9.750;2024-01-15T02:02:03;98944.50;;;2.46;100.00
30636;BME280;17400;52.392;9.750;2024-01-15T02:04:32;98963.47;;;2.52;100.00
30636;BME280;17400;52.392;9.750;2024-01-15T02:07:05;98953.06;;;2.57;100.00
30636;BME280;17400;52.392;9.750;2024-01-15T02:09:32;98942.72;;;2.54;100.00
30636;BME280;17400;52.392;9.750;2024-01-15T02:12:01;98942.72;;;2.54;100.00
30636;BME280;17400;52.392;9.750;2024-01-15T02:14:29;98941.34;;;2.58;100.00
30636;BME280;17400;52.392;9.750;2024-01-15T02:16:57;98938.84;;;2.56;100.00
30636;BME280;17400;52.392;9.750;2024-01-15T02:19:24;98960.81;;;2.52;100.00
30636;BME280;17400;52.392;9.750;2024-01-15T02:21:52;98939.44;;;2.52;100.00
30636;BME280;17400;52.392;9.750;2024-01-15T02:24:21;98943.19;;;2.57;100.00
30636;BME280;17400;52.392;9.750;2024-01-15T02:26:50;98949.00;;;2.61;100.00
30636;BME280;17400;52.392;9.750;2024-01-15T02:29:17;98945.78;;;2.50;100.00
30636;BME280;17400;52.392;9.750;2024-01-15T02:31:45;98938.31;;;2.46;100.00
30636;BME280;17400;52.392;9.750;2024-01-15T02:34:13;98938.59;;;2.51;100.00
30636;BME280;17400;52.392;9.750;2024-01-15T02:36:41;98938.41;;;2.53;100.00
30636;BME280;17400;52.392;9.750;2024-01-15T02:39:09;98933.97;;;2.60;100.00
30636;BME280;17400;52.392;9.750;2024-01-15T02:41:38;98933.97;;;2.60;100.00
30636;BME280;17400;52.392;9.750;2024-01-15T02:44:06;98934.34;;;2.57;100.00
30636;BME280;17400;52.392;9.750;2024-01-15T02:46:33;98927.03;;;2.65;100.00
30636;BME280;17400;52.392;9.750;2024-01-15T02:49:01;98940.03;;;2.69;100.00
30636;BME280;17400;52.392;9.750;2024-01-15T02:51:30;98928.31;;;2.70;100.00
30636;BME280;17400;52.392;9.750;2024-01-15T02:54:00;98928.38;;;2.76;100.00
30636;BME280;17400;52.392;9.750;2024-01-15T02:56:28;98940.25;;;2.74;100.00
30636;BME280;17400;52.392;9.750;2024-01-15T02:58:57;98928.50;;;2.68;100.00
30636;BME280;17400;52.392;9.750;2024-01-15T03:01:27;98919.09;;;2.72;100.00
30636;BME280;17400;52.392;9.750;2024-01-15T03:03:55;98920.94;;;2.72;100.00
30636;BME280;17400;52.392;9.750;2024-01-15T03:06:24;98911.19;;;2.64;100.00
30636;BME280;17400;52.392;9.750;2024-01-15T03:08:52;98917.56;;;2.63;100.00
30636;BME280;17400;52.392;9.750;2024-01-15T03:11:19;98925.75;;;2.61;100.00
30636;BME280;17400;52.392;9.750;2024-01-15T03:13:48;98932.38;;;2.65;100.00
30636;BME280;17400;52.392;9.750;2024-01-15T03:16:17;98920.88;;;2.65;100.00
30636;BME280;17400;52.392;9.750;2024-01-15T03:18:46;98926.97;;;2.59;100.00
30636;BME280;17400;52.392;9.750;2024-01-15T03:21:14;98927.56;;;2.54;100.00
30636;BME280;17400;52.392;9.750;2024-01-15T03:23:42;98926.97;;;2.59;100.00
30636;BME280;17400;52.392;9.750;2024-01-15T03:26:12;98927.97;;;2.58;100.00
30636;BME280;17400;52.392;9.750;2024-01-15T03:28:39;98922.63;;;2.58;100.00
30636;BME280;17400;52.392;9.750;2024-01-15T03:31:07;98928.38;;;2.55;100.00
30636;BME280;17400;52.392;9.750;2024-01-15T03:33:37;98933.97;;;2.60;100.00
30636;BME280;17400;52.392;9.750;2024-01-15T03:36:06;98931.56;;;2.65;100.00
30636;BME280;17400;52.392;9.750;2024-01-15T03:38:39;98924.56;;;2.64;100.00
30636;BME280;17400;52.392;9.750;2024-01-15T03:41:07;98932.56;;;2.64;100.00
30636;BME280;17400;52.392;9.750;2024-01-15T03:43:36;98939.19;;;2.68;100.00
30636;BME280;17400;52.392;9.750;2024-01-15T03:46:03;98932.31;;;2.59;100.00
30636;BME280;17400;52.392;9.750;2024-01-15T03:48:31;98939.31;;;2.60;100.00
30636;BME280;17400;52.392;9.750;2024-01-15T03:51:01;98941.03;;;2.67;100.00
30636;BME280;17400;52.392;9.750;2024-01-15T03:53:29;98929.00;;;2.57;100.00
30636;BME280;17400;52.392;9.750;2024-01-15T03:55:57;98939.94;;;2.62;100.00
30636;BME280;17400;52.392;9.750;2024-01-15T03:58:25;98932.38;;;2.65;100.00
30636;BME280;17400;52.392;9.750;2024-01-15T04:00:52;98937.91;;;2.64;100.00
30636;BME280;17400;52.392;9.750;2024-01-15T04:03:20;98935.91;;;2.66;100.00
30636;BME280;17400;52.392;9.750;2024-01-15T04:05:48;98932.75;;;2.62;100.00
30636;BME280;17400;52.392;9.750;2024-01-15T04:08:18;98936.06;;;2.64;100.00
30636;BME280;17400;52.392;9.750;2024-01-15T04:10:45;98927.88;;;2.66;100.00
30636;BME280;17400;52.392;9.750;2024-01-15T04:13:13;98936.50;;;2.68;100.00
30636;BME280;17400;52.392;9.750;2024-01-15T04:15:41;98926.22;;;2.65;100.00
30636;BME280;17400;52.392;9.750;2024-01-15T04:18:09;98937.91;;;2.64;100.00
30636;BME280;17400;52.392;9.750;2024-01-15T04:20:37;98944.91;;;2.65;100.00
30636;BME280;17400;52.392;9.750;2024-01-15T04:23:06;98952.66;;;2.60;100.00
30636;BME280;17400;52.392;9.750;2024-01-15T04:25:35;98941.66;;;2.70;100.00
30636;BME280;17400;52.392;9.750;2024-01-15T04:28:03;98934.03;;;2.66;100.00
30636;BME280;17400;52.392;9.750;2024-01-15T04:30:31;98940.59;;;2.64;100.00
30636;BME280;17400;52.392;9.750;2024-01-15T04:32:59;98938.19;;;2.69;100.00
30636;BME280;17400;52.392;9.750;2024-01-15T04:35:26;98930.34;;;2.67;100.00
30636;BME280;17400;52.392;9.750;2024-01-15T04:37:54;98943.25;;;2.64;100.00
30636;BME280;17400;52.392;9.750;2024-01-15T04:40:22;98930.97;;;2.70;100.00
30636;BME280;17400;52.392;9.750;2024-01-15T04:42:51;98934.09;;;2.73;100.00
30636;BME280;17400;52.392;9.750;2024-01-15T04:45:19;98945.59;;;2.74;100.00
30636;BME280;17400;52.392;9.750;2024-01-15T04:47:49;98945.53;;;2.67;100.00
30636;BME280;17400;52.392;9.750;2024-01-15T04:50:17;98948.06;;;2.69;100.00
30636;BME280;17400;52.392;9.750;2024-01-15T04:52:45;98947.13;;;2.61;100.00
30636;BME280;17400;52.392;9.750;2024-01-15T04:55:13;98934.22;;;2.65;100.00
30636;BME280;17400;52.392;9.750;2024-01-15T04:57:40;98925.56;;;2.63;100.00
30636;BME280;17400;52.392;9.750;2024-01-15T05:00:11;98931.56;;;2.65;100.00
30636;BME280;17400;52.392;9.750;2024-01-15T05:02:39;98932.25;;;2.74;100.00
30636;BME280;17400;52.392;9.750;2024-01-15T05:05:08;98932.09;;;2.75;100.00
30636;BME280;17400;52.392;9.750;2024-01-15T05:07:36;98933.22;;;2.66;100.00
30636;BME280;17400;52.392;9.750;2024-01-15T05:10:05;98928.25;;;2.63;100.00
30636;BME280;17400;52.392;9.750;2024-01-15T05:12:34;98912.84;;;2.65;100.00
30636;BME280;17400;52.392;9.750;2024-01-15T05:15:03;98912.47;;;2.68;100.00
30636;BME280;17400;52.392;9.750;2024-01-15T05:17:32;98903.63;;;2.67;100.00
30636;BME280;17400;52.392;9.750;2024-01-15T05:20:00;98909.53;;;2.63;100.00
30636;BME280;17400;52.392;9.750;2024-01-15T05:22:28;98914.69;;;2.64;100.00
30636;BME280;17400;52.392;9.750;2024-01-15T05:24:56;98905.97;;;2.77;100.00
30636;BME280;17400;52.392;9.750;2024-01-15T05:27:24;98908.16;;;2.89;100.00
30636;BME280;17400;52.392;9.750;2024-01-15T05:29:52;98918.19;;;2.87;100.00
30636;BME280;17400;52.392;9.750;2024-01-15T05:32:20;98907.56;;;2.93;100.00
30636;BME280;17400;52.392;9.750;2024-01-15T05:34:49;98907.19;;;2.96;100.00
30636;BME280;17400;52.392;9.750;2024-01-15T05:37:17;98915.78;;;2.92;100.00
30636;BME280;17400;52.392;9.750;2024-01-15T05:39:45;98912.84;;;2.87;100.00
30636;BME280;17400;52.392;9.750;2024-01-15T05:42:13;98919.22;;;2.64;100.00
30636;BME280;17400;52.392;9.750;2024-01-15T05:44:40;98908.53;;;2.64;100.00
30636;BME280;17400;52.392;9.750;2024-01-15T05:47:08;98903.63;;;2.67;100.00
30636;BME280;17400;52.392;9.750;2024-01-15T05:49:37;98896.69;;;2.73;100.00
30636;BME280;17400;52.392;9.750;2024-01-15T05:52:06;98894.63;;;2.69;100.00
30636;BME280;17400;52.392;9.750;2024-01-15T05:54:34;98913.47;;;2.67;100.00
30636;BME280;17400;52.392;9.750;2024-01-15T05:57:02;98907.38;;;2.73;100.00
30636;BME280;17400;52.392;9.750;2024-01-15T05:59:30;98907.19;;;2.75;100.00
30636;BME280;17400;52.392;9.750;2024-01-15T06:02:00;98915.19;;;2.75;100.00
30636;BME280;17400;52.392;9.750;2024-01-15T06:04:28;98914.38;;;2.74;100.00
30636;BME280;17400;52.392;9.750;2024-01-15T06:06:56;98909.25;;;2.73;100.00
30636;BME280;17400;52.392;9.750;2024-01-15T06:09:26;98913.13;;;2.70;100.00
30636;BME280;17400;52.392;9.750;2024-01-15T06:11:53;98907.59;;;2.72;100.00
30636;BME280;17400;52.392;9.750;2024-01-15T06:14:21;98906.56;;;2.73;100.00
30636;BME280;17400;52.392;9.750;2024-01-15T06:16:49;98909.25;;;2.73;100.00
30636;BME280;17400;52.392;9.750;2024-01-15T06:19:17;98906.56;;;2.73;100.00
30636;BME280;17400;52.392;9.750;2024-01-15T06:21:45;98905.91;;;2.71;100.00
30636;BME280;17400;52.392;9.750;2024-01-15T06:24:14;98907.25;;;2.60;100.00
30636;BME280;17400;52.392;9.750;2024-01-15T06:26:46;98914.88;;;2.63;100.00
30636;BME280;17400;52.392;9.750;2024-01-15T06:29:14;98908.53;;;2.64;100.00
30636;BME280;17400;52.392;9.750;2024-01-15T06:31:41;98920.47;;;2.68;100.00
30636;BME280;17400;52.392;9.750;2024-01-15T06:34:10;98926.16;;;2.58;100.00
30636;BME280;17400;52.392;9.750;2024-01-15T06:36:38;98922.53;;;2.66;100.00
30636;BME280;17400;52.392;9.750;2024-01-15T06:39:05;98911.91;;;2.73;100.00
30636;BME280;17400;52.392;9.750;2024-01-15T06:41:34;98915.13;;;2.68;100.00
30636;BME280;17400;52.392;9.750;2024-01-15T06:44:03;98899.50;;;2.65;100.00
30636;BME280;17400;52.392;9.750;2024-01-15T06:46:34;98909.72;;;2.61;100.00
30636;BME280;17400;52.392;9.750;2024-01-15T06:49:02;98913.06;;;2.63;100.00
30636;BME280;17400;52.392;9.750;2024-01-15T06:51:30;98922.53;;;2.66;100.00
30636;BME280;17400;52.392;9.750;2024-01-15T06:53:58;98927.41;;;2.62;100.00
30636;BME280;17400;52.392;9.750;2024-01-15T06:56:26;98916.53;;;2.64;100.00
30636;BME280;17400;52.392;9.750;2024-01-15T06:58:53;98921.63;;;2.59;100.00
30636;BME280;17400;52.392;9.750;2024-01-15T07:01:23;98928.44;;;2.61;100.00
30636;BME280;17400;52.392;9.750;2024-01-15T07:03:51;98933.03;;;2.67;100.00
30636;BME280;17400;52.392;9.750;2024-01-15T07:06:19;98915.53;;;2.65;100.00
30636;BME280;17400;52.392;9.750;2024-01-15T07:08:47;98920.09;;;2.71;100.00
30636;BME280;17400;52.392;9.750;2024-01-15T07:11:15;98931.81;;;2.70;100.00
30636;BME280;17400;52.392;9.750;2024-01-15T07:13:43;98931.25;;;2.75;100.00
30636;BME280;17400;52.392;9.750;2024-01-15T07:16:11;98932.84;;;2.69;100.00
30636;BME280;17400;52.392;9.750;2024-01-15T07:18:47;98929.50;;;2.67;100.00
30636;BME280;17400;52.392;9.750;2024-01-15T07:21:17;98938.19;;;2.69;100.00
30636;BME280;17400;52.392;9.750;2024-01-15T07:23:45;98944.78;;;2.73;100.00
30636;BME280;17400;52.392;9.750;2024-01-15T07:26:14;98939.78;;;2.63;100.00
30636;BME280;17400;52.392;9.750;2024-01-15T07:28:42;98935.63;;;2.61;100.00
30636;BME280;17400;52.392;9.750;2024-01-15T07:31:10;98942.13;;;2.73;100.00
30636;BME280;17400;52.392;9.750;2024-01-15T07:33:38;98942.00;;;2.81;100.00
30636;BME280;17400;52.392;9.750;2024-01-15T07:36:08;98927.75;;;2.74;100.00
30636;BME280;17400;52.392;9.750;2024-01-15T07:38:36;98937.84;;;2.79;100.00
30636;BME280;17400;52.392;9.750;2024-01-15T07:41:05;98942.94;;;2.74;100.00
30636;BME280;17400;52.392;9.750;2024-01-15T07:43:33;98948.94;;;2.76;100.00
30636;BME280;17400;52.392;9.750;2024-01-15T07:46:00;98936.38;;;2.76;100.00
30636;BME280;17400;52.392;9.750;2024-01-15T07:48:29;98941.72;;;2.76;100.00
30636;BME280;17400;52.392;9.750;2024-01-15T07:50:58;98946.06;;;2.77;100.00
30636;BME280;17400;52.392;9.750;2024-01-15T07:53:28;98946.72;;;2.79;100.00
30636;BME280;17400;52.392;9.750;2024-01-15T07:55:56;98935.97;;;2.73;100.00
30636;BME280;17400;52.392;9.750;2024-01-15T07:58:25;98946.44;;;2.74;100.00
30636;BME280;17400;52.392;9.750;2024-01-15T08:00:56;98939.91;;;2.77;100.00
30636;BME280;17400;52.392;9.750;2024-01-15T08:03:24;98945.25;;;2.77;100.00
30636;BME280;17400;52.392;9.750;2024-01-15T08:05:52;98947.28;;;2.75;100.00
30636;BME280;17400;52.392;9.750;2024-01-15T08:08:21;98950.53;;;2.70;100.00
30636;BME280;17400;52.392;9.750;2024-01-15T08:10:52;98955.59;;;2.65;100.00
30636;BME280;17400;52.392;9.750;2024-01-15T08:13:20;98951.81;;;2.59;100.00
30636;BME280;17400;52.392;9.750;2024-01-15T08:15:50;98957.34;;;2.58;100.00
30636;BME280;17400;52.392;9.750;2024-01-15T08:18:19;98953.94;;;2.64;100.00
30636;BME280;17400;52.392;9.750;2024-01-15T08:20:48;98956.34;;;2.59;100.00
30636;BME280;17400;52.392;9.750;2024-01-15T08:23:18;98959.84;;;2.59;100.00
30636;BME280;17400;52.392;9.750;2024-01-15T08:25:46;98946.47;;;2.59;100.00
30636;BME280;17400;52.392;9.750;2024-01-15T08:28:16;98956.63;;;2.64;100.00
30636;BME280;17400;52.392;9.750;2024-01-15T08:30:44;98953.22;;;2.55;100.00
30636;BME280;17400;52.392;9.750;2024-01-15T08:33:12;98960.22;;;2.56;100.00
30636;BME280;17400;52.392;9.750;2024-01-15T08:35:48;98957.75;;;2.55;100.00
30636;BME280;17400;52.392;9.750;2024-01-15T08:38:16;98966.78;;;2.54;100.00
30636;BME280;17400;52.392;9.750;2024-01-15T08:40:44;98964.75;;;2.56;100.00
30636;BME280;17400;52.392;9.750;2024-01-15T08:43:12;98967.63;;;2.54;100.00
30636;BME280;17400;52.392;9.750;2024-01-15T08:45:41;98969.09;;;2.57;100.00
30636;BME280;17400;52.392;9.750;2024-01-15T08:48:09;98963.56;;;2.58;100.00
30636;BME280;17400;52.392;9.750;2024-01-15T08:50:38;98969.78;;;2.65;100.00
30636;BME280;17400;52.392;9.750;2024-01-15T08:53:06;98962.56;;;2.81;100.00
30636;BME280;17400;52.392;9.750;2024-01-15T08:55:33;98965.56;;;2.93;100.00
30636;BME280;17400;52.392;9.750;2024-01-15T08:58:01;98956.31;;;2.95;100.00
30636;BME280;17400;52.392;9.750;2024-01-15T09:00:30;98956.53;;;2.94;100.00
30636;BME280;17400;52.392;9.750;2024-01-15T09:03:00;98955.06;;;2.91;100.00
30636;BME280;17400;52.392;9.750;2024-01-15T09:05:29;98961.88;;;2.94;100.00
30636;BME280;17400;52.392;9.750;2024-01-15T09:07:57;98962.50;;;2.96;100.00
30636;BME280;17400;52.392;9.750;2024-01-15T09:10:25;98954.81;;;2.86;100.00
30636;BME280;17400;52.392;9.750;2024-01-15T09:12:53;98952.47;;;2.83;100.00
30636;BME280;17400;52.392;9.750;2024-01-15T09:15:21;98966.09;;;2.88;100.00
30636;BME280;17400;52.392;9.750;2024-01-15T09:17:49;98962.28;;;2.97;100.00
30636;BME280;17400;52.392;9.750;2024-01-15T09:20:18;98946.06;;;2.99;100.00
30636;BME280;17400;52.392;9.750;2024-01-15T09:22:46;98955.38;;;3.03;100.00
30636;BME280;17400;52.392;9.750;2024-01-15T09:25:14;98954.97;;;3.06;100.00
30636;BME280;17400;52.392;9.750;2024-01-15T09:27:42;98948.28;;;3.17;100.00
30636;BME280;17400;52.392;9.750;2024-01-15T09:30:11;98948.34;;;3.24;100.00
30636;BME280;17400;52.392;9.750;2024-01-15T09:32:39;98961.16;;;3.28;100.00
30636;BME280;17400;52.392;9.750;2024-01-15T09:35:07;98971.53;;;3.16;100.00
30636;BME280;17400;52.392;9.750;2024-01-15T09:37:39;98966.88;;;3.25;100.00
30636;BME280;17400;52.392;9.750;2024-01-15T09:40:14;98966.19;;;3.16;100.00
30636;BME280;17400;52.392;9.750;2024-01-15T09:42:46;98968.31;;;3.28;100.00
30636;BME280;17400;52.392;9.750;2024-01-15T09:45:14;98967.16;;;3.37;100.00
30636;BME280;17400;52.392;9.750;2024-01-15T09:47:42;98977.75;;;3.45;100.00
30636;BME280;17400;52.392;9.750;2024-01-15T09:50:13;98977.50;;;3.40;100.00
30636;BME280;17400;52.392;9.750;2024-01-15T09:52:44;98979.94;;;3.35;100.00
30636;BME280;17400;52.392;9.750;2024-01-15T09:55:13;98991.84;;;3.32;100.00
30636;BME280;17400;52.392;9.750;2024-01-15T09:57:44;98980.06;;;3.27;100.00
30636;BME280;17400;52.392;9.750;2024-01-15T10:00:12;98977.56;;;3.25;100.00
30636;BME280;17400;52.392;9.750;2024-01-15T10:02:41;98985.41;;;3.27;100.00
30636;BME280;17400;52.392;9.750;2024-01-15T10:05:11;98977.81;;;3.30;100.00
30636;BME280;17400;52.392;9.750;2024-01-15T10:07:40;98977.50;;;3.19;100.00
30636;BME280;17400;52.392;9.750;2024-01-15T10:10:10;98989.59;;;3.14;100.00
30636;BME280;17400;52.392;9.750;2024-01-15T10:12:39;98986.63;;;3.03;100.00
30636;BME280;17400;52.392;9.750;2024-01-15T10:15:09;98998.41;;;3.08;100.00
30636;BME280;17400;52.392;9.750;2024-01-15T10:17:38;99001.44;;;3.05;100.00
30636;BME280;17400;52.392;9.750;2024-01-15T10:20:09;98998.97;;;3.04;100.00
30636;BME280;17400;52.392;9.750;2024-01-15T10:22:40;98992.75;;;2.96;100.00
30636;BME280;17400;52.392;9.750;2024-01-15T10:25:13;98993.22;;;2.85;100.00
30636;BME280;17400;52.392;9.750;2024-01-15T10:27:42;98995.69;;;2.87;100.00
30636;BME280;17400;52.392;9.750;2024-01-15T10:30:12;98997.25;;;2.96;100.00
30636;BME280;17400;52.392;9.750;2024-01-15T10:32:41;98991.63;;;2.91;100.00
30636;BME280;17400;52.392;9.750;2024-01-15T10:35:09;98985.53;;;2.97;100.00
30636;BME280;17400;52.392;9.750;2024-01-15T10:37:38;98991.19;;;3.09;100.00
30636;BME280;17400;52.392;9.750;2024-01-15T10:40:06;98983.50;;;3.21;100.00
30636;BME280;17400;52.392;9.750;2024-01-15T10:42:36;98987.63;;;3.23;100.00
30636;BME280;17400;52.392;9.750;2024-01-15T10:45:04;98973.88;;;3.26;100.00
30636;BME280;17400;52.392;9.750;2024-01-15T10:47:32;98975.69;;;3.19;100.00
30636;BME280;17400;52.392;9.750;2024-01-15T10:50:01;98975.72;;;3.26;100.00
30636;BME280;17400;52.392;9.750;2024-01-15T10:52:30;98972.59;;;3.22;100.00
30636;BME280;17400;52.392;9.750;2024-01-15T10:54:59;98970.94;;;3.21;100.00
30636;BME280;17400;52.392;9.750;2024-01-15T10:57:39;98971.34;;;3.18;100.00
30636;BME280;17400;52.392;9.750;2024-01-15T11:00:07;98971.69;;;3.08;100.00
30636;BME280;17400;52.392;9.750;2024-01-15T11:02:41;98975.63;;;3.12;100.00
30636;BME280;17400;52.392;9.750;2024-01-15T11:05:11;98970.13;;;3.21;100.00
30636;BME280;17400;52.392;9.750;2024-01-15T11:07:40;98960.69;;;3.25;100.00
30636;BME280;17400;52.392;9.750;2024-01-15T11:10:38;98974.13;;;3.31;100.00
30636;BME280;17400;52.392;9.750;2024-01-15T11:13:10;98972.91;;;3.34;100.00
30636;BME280;17400;52.392;9.750;2024-01-15T11:15:57;98967.63;;;3.41;100.00
30636;BME280;17400;52.392;9.750;2024-01-15T11:18:27;98961.91;;;3.50;100.00
30636;BME280;17400;52.392;9.750;2024-01-15T11:21:19;98960.38;;;3.63;100.00
30636;BME280;17400;52.392;9.750;2024-01-15T11:23:50;98965.13;;;3.67;100.00
30636;BME280;17400;52.392;9.750;2024-01-15T11:26:27;98962.66;;;3.66;100.00
30636;BME280;17400;52.392;9.750;2024-01-15T11:28:57;98956.66;;;3.57;100.00
30636;BME280;17400;52.392;9.750;2024-01-15T11:31:29;98944.47;;;3.55;100.00
30636;BME280;17400;52.392;9.750;2024-01-15T11:33:58;98940.63;;;3.64;100.00
30636;BME280;17400;52.392;9.750;2024-01-15T11:37:00;98953.41;;;3.69;100.00
30636;BME280;17400;52.392;9.750;2024-01-15T11:39:41;98942.66;;;3.62;100.00
30636;BME280;17400;52.392;9.750;2024-01-15T11:42:11;98949.53;;;3.71;100.00
30636;BME280;17400;52.392;9.750;2024-01-15T11:44:41;98957.09;;;3.67;100.00
30636;BME280;17400;52.392;9.750;2024-01-15T11:47:09;98945.81;;;3.72;100.00
30636;BME280;17400;52.392;9.750;2024-01-15T11:49:58;98951.88;;;3.53;100.00
30636;BME280;17400;52.392;9.750;2024-01-15T11:52:32;98946.72;;;3.51;100.00
30636;BME280;17400;52.392;9.750;2024-01-15T11:55:05;98946.13;;;3.56;100.00
30636;BME280;17400;52.392;9.750;2024-01-15T11:57:41;98956.00;;;3.55;100.00
30636;BME280;17400;52.392;9.750;2024-01-15T12:00:12;98958.63;;;3.48;100.00
30636;BME280;17400;52.392;9.750;2024-01-15T12:02:41;98947.94;;;3.48;100.00
30636;BME280;17400;52.392;9.750;2024-01-15T12:05:10;98949.09;;;3.39;100.00
30636;BME280;17400;52.392;9.750;2024-01-15T12:07:39;98946.03;;;3.42;100.00
30636;BME280;17400;52.392;9.750;2024-01-15T12:10:10;98936.72;;;3.38;100.00
30636;BME280;17400;52.392;9.750;2024-01-15T12:12:57;98945.66;;;3.45;100.00
30636;BME280;17400;52.392;9.750;2024-01-15T12:15:28;98942.44;;;3.28;100.00
30636;BME280;17400;52.392;9.750;2024-01-15T12:17:58;98938.53;;;3.31;100.00
30636;BME280;17400;52.392;9.750;2024-01-15T12:20:27;98949.81;;;3.26;100.00
30636;BME280;17400;52.392;9.750;2024-01-15T12:22:56;98939.94;;;3.27;100.00
30636;BME280;17400;52.392;9.750;2024-01-15T12:25:30;98943.84;;;3.24;100.00
30636;BME280;17400;52.392;9.750;2024-01-15T12:28:00;98942.94;;;3.17;100.00
30636;BME280;17400;52.392;9.750;2024-01-15T12:30:30;98941.53;;;3.21;100.00
30636;BME280;17400;52.392;9.750;2024-01-15T12:33:01;98945.66;;;3.24;100.00
30636;BME280;17400;52.392;9.750;2024-01-15T12:35:29;98940.38;;;3.30;100.00
30636;BME280;17400;52.392;9.750;2024-01-15T12:37:59;98953.19;;;3.35;100.00
30636;BME280;17400;52.392;9.750;2024-01-15T12:40:31;98955.06;;;3.41;100.00
30636;BME280;17400;52.392;9.750;2024-01-15T12:42:59;98957.38;;;3.44;100.00
30636;BME280;17400;52.392;9.750;2024-01-15T12:45:27;98959.03;;;3.45;100.00
30636;BME280;17400;52.392;9.750;2024-01-15T12:47:56;98953.22;;;3.42;100.00
30636;BME280;17400;52.392;9.750;2024-01-15T12:50:26;98951.22;;;3.50;100.00
30636;BME280;17400;52.392;9.750;2024-01-15T12:52:54;98946.72;;;3.51;100.00
30636;BME280;17400;52.392;9.750;2024-01-15T12:55:22;98957.22;;;3.53;100.00
30636;BME280;17400;52.392;9.750;2024-01-15T12:57:49;98950.31;;;3.37;100.00
30636;BME280;17400;52.392;9.750;2024-01-15T13:00:20;98955.22;;;3.33;100.00
30636;BME280;17400;52.392;9.750;2024-01-15T13:02:49;98944.31;;;3.34;100.00
30636;BME280;17400;52.392;9.750;2024-01-15T13:05:19;98953.44;;;3.40;100.00
30636;BME280;17400;52.392;9.750;2024-01-15T13:07:48;98956.47;;;3.37;100.00
30636;BME280;17400;52.392;9.750;2024-01-15T13:10:16;98964.75;;;3.42;100.00